createdAt,value
2018-03-24T00:00:19.440Z,17.37
2018-03-24T00:02:45.620Z,16.53
2018-03-24T00:05:11.824Z,16.63
2018-03-24T00:07:38.035Z,17.10
2018-03-24T00:10:04.992Z,17.00
2018-03-24T00:12:31.191Z,15.33
2018-03-24T00:14:57.392Z,13.57
2018-03-24T00:17:23.599Z,11.90
2018-03-24T00:19:49.775Z,14.17
2018-03-24T00:22:15.995Z,12.67
2018-03-24T00:24:42.170Z,11.83
2018-03-24T00:27:09.087Z,11.37
2018-03-24T00:29:35.310Z,12.20
2018-03-24T00:32:01.482Z,12.33
2018-03-24T00:34:27.702Z,11.67
2018-03-24T00:36:53.904Z,14.40
2018-03-24T00:39:20.082Z,12.93
2018-03-24T00:41:46.292Z,12.87
2018-03-24T00:44:12.476Z,10.83
2018-03-24T00:46:38.676Z,11.00
2018-03-24T00:49:04.856Z,11.23
2018-03-24T00:51:31.083Z,10.83
2018-03-24T00:53:57.264Z,9.90
2018-03-24T00:56:23.484Z,12.20
2018-03-24T00:58:49.707Z,11.10
2018-03-24T01:01:15.909Z,11.37
2018-03-24T01:03:42.106Z,10.27
2018-03-24T01:06:08.315Z,10.87
2018-03-24T01:08:34.507Z,12.23
2018-03-24T01:11:00.723Z,12.87
2018-03-24T01:13:27.643Z,12.60
2018-03-24T01:15:54.618Z,12.37
2018-03-24T01:18:21.524Z,13.87
2018-03-24T01:20:47.702Z,11.73
2018-03-24T01:23:14.635Z,12.00
2018-03-24T01:25:41.554Z,12.37
2018-03-24T01:28:07.759Z,11.57
2018-03-24T01:30:33.963Z,11.70
2018-03-24T01:33:00.920Z,12.63
2018-03-24T01:35:27.107Z,11.37
2018-03-24T01:37:53.323Z,10.97
2018-03-24T01:40:19.495Z,13.07
2018-03-24T01:42:45.669Z,10.63
2018-03-24T01:45:11.887Z,8.90
2018-03-24T01:47:38.056Z,9.33
2018-03-24T01:50:04.271Z,8.37
2018-03-24T01:52:30.438Z,7.40
2018-03-24T01:54:56.637Z,8.47
2018-03-24T01:57:22.812Z,8.10
2018-03-24T01:59:49.055Z,8.23
2018-03-24T02:02:15.242Z,7.93
2018-03-24T02:04:41.448Z,6.83
2018-03-24T02:07:08.400Z,7.10
2018-03-24T02:09:35.311Z,8.60
2018-03-24T02:12:01.556Z,7.90
2018-03-24T02:14:27.731Z,7.13
2018-03-24T02:16:53.927Z,9.03
2018-03-24T02:19:20.164Z,8.20
2018-03-24T02:21:47.100Z,8.70
2018-03-24T02:24:13.349Z,7.57
2018-03-24T02:26:39.514Z,8.60
2018-03-24T02:29:05.706Z,8.30
2018-03-24T02:31:32.671Z,7.60
2018-03-24T02:33:59.579Z,7.83
2018-03-24T02:36:25.787Z,8.00
2018-03-24T02:38:51.987Z,7.57
2018-03-24T02:41:18.910Z,7.27
2018-03-24T02:43:46.075Z,8.07
2018-03-24T02:46:12.248Z,7.40
2018-03-24T02:48:38.430Z,7.80
2018-03-24T02:51:04.627Z,8.17
2018-03-24T02:53:30.802Z,8.17
2018-03-24T02:55:57.156Z,6.60
2018-03-24T02:58:24.055Z,8.03
2018-03-24T03:00:50.217Z,7.60
2018-03-24T03:03:23.482Z,7.43
2018-03-24T03:05:50.140Z,7.83
2018-03-24T03:08:16.376Z,8.73
2018-03-24T03:10:42.575Z,8.93
2018-03-24T03:13:08.777Z,7.47
2018-03-24T03:15:35.772Z,8.40
2018-03-24T03:18:01.955Z,8.30
2018-03-24T03:20:28.856Z,7.90
2018-03-24T03:22:55.050Z,7.50
2018-03-24T03:25:21.222Z,8.10
2018-03-24T03:27:47.476Z,8.77
2018-03-24T03:30:19.764Z,9.13
2018-03-24T03:32:45.980Z,8.47
2018-03-24T03:35:12.223Z,8.20
2018-03-24T03:37:38.397Z,10.07
2018-03-24T03:40:04.583Z,10.37
2018-03-24T03:42:30.800Z,8.93
2018-03-24T03:44:56.967Z,8.30
2018-03-24T03:47:23.914Z,9.60
2018-03-24T03:49:50.844Z,10.40
2018-03-24T03:52:17.006Z,8.73
2018-03-24T03:54:43.933Z,8.57
2018-03-24T03:57:10.111Z,10.43
2018-03-24T03:59:36.318Z,9.00
2018-03-24T04:02:03.304Z,10.37
2018-03-24T04:04:29.479Z,7.87
2018-03-24T04:06:55.672Z,8.27
2018-03-24T04:09:21.849Z,8.07
2018-03-24T04:11:48.055Z,8.60
2018-03-24T04:14:14.291Z,8.07
2018-03-24T04:16:40.484Z,7.27
2018-03-24T04:19:06.692Z,7.23
2018-03-24T04:24:08.271Z,7.60
2018-03-24T04:26:35.225Z,9.07
2018-03-24T04:29:02.135Z,9.27
2018-03-24T04:31:28.407Z,8.67
2018-03-24T04:33:55.322Z,7.73
2018-03-24T04:36:21.491Z,10.30
2018-03-24T04:38:48.463Z,8.63
2018-03-24T04:41:14.638Z,11.00
2018-03-24T04:43:40.813Z,7.87
2018-03-24T04:46:07.751Z,8.03
2018-03-24T04:48:34.664Z,8.83
2018-03-24T04:51:00.916Z,7.83
2018-03-24T04:53:27.082Z,8.77
2018-03-24T04:55:53.999Z,8.67
2018-03-24T04:58:20.211Z,11.00
2018-03-24T05:00:46.390Z,9.40
2018-03-24T05:03:12.602Z,8.53
2018-03-24T05:05:38.798Z,10.53
2018-03-24T05:08:04.991Z,9.30
2018-03-24T05:10:31.942Z,8.60
2018-03-24T05:12:58.860Z,7.93
2018-03-24T05:15:25.047Z,9.23
2018-03-24T05:17:51.263Z,10.23
2018-03-24T05:20:17.432Z,7.57
2018-03-24T05:22:43.644Z,9.57
2018-03-24T05:25:09.804Z,7.57
2018-03-24T05:27:35.958Z,9.53
2018-03-24T05:30:02.194Z,8.60
2018-03-24T05:32:28.377Z,9.53
2018-03-24T05:34:54.555Z,8.57
2018-03-24T05:37:20.790Z,8.27
2018-03-24T05:39:47.715Z,9.00
2018-03-24T05:42:13.879Z,8.67
2018-03-24T05:44:40.341Z,10.13
2018-03-24T05:47:06.526Z,8.40
2018-03-24T05:49:32.694Z,9.17
2018-03-24T05:51:59.633Z,9.40
2018-03-24T05:54:25.793Z,9.30
2018-03-24T05:56:52.012Z,8.13
2018-03-24T05:59:18.951Z,8.33
2018-03-24T06:01:45.880Z,8.43
2018-03-24T06:04:12.076Z,9.97
2018-03-24T06:06:38.307Z,8.90
2018-03-24T06:09:04.588Z,8.40
2018-03-24T06:11:30.799Z,9.17
2018-03-24T06:13:57.040Z,9.87
2018-03-24T06:16:23.351Z,8.93
2018-03-24T06:18:49.543Z,10.87
2018-03-24T06:21:16.595Z,9.27
2018-03-24T06:23:42.786Z,8.97
2018-03-24T06:26:08.964Z,10.77
2018-03-24T06:28:35.908Z,8.77
2018-03-24T06:31:03.666Z,9.13
2018-03-24T06:33:29.875Z,9.73
2018-03-24T06:35:56.122Z,10.83
2018-03-24T06:38:22.301Z,10.00
2018-03-24T06:40:48.472Z,10.43
2018-03-24T06:43:14.721Z,9.03
2018-03-24T06:45:40.912Z,10.67
2018-03-24T06:48:07.095Z,10.60
2018-03-24T06:50:33.296Z,10.60
2018-03-24T06:52:59.484Z,11.80
2018-03-24T06:55:26.462Z,9.63
2018-03-24T06:57:52.643Z,9.50
2018-03-24T07:00:18.856Z,10.10
2018-03-24T07:02:45.058Z,10.07
2018-03-24T07:05:11.228Z,9.53
2018-03-24T07:07:37.428Z,10.20
2018-03-24T07:10:03.675Z,9.97
2018-03-24T07:12:29.911Z,10.17
2018-03-24T07:14:56.075Z,8.90
2018-03-24T07:17:22.243Z,11.50
2018-03-24T07:19:48.431Z,10.27
2018-03-24T07:22:14.630Z,10.10
2018-03-24T07:24:40.812Z,9.20
2018-03-24T07:27:06.984Z,9.83
2018-03-24T07:29:33.181Z,10.10
2018-03-24T07:31:59.343Z,11.47
2018-03-24T07:34:25.533Z,9.90
2018-03-24T07:36:51.767Z,10.63
2018-03-24T07:39:17.946Z,11.87
2018-03-24T07:41:44.106Z,11.50
2018-03-24T07:44:10.324Z,12.03
2018-03-24T07:46:36.489Z,9.53
2018-03-24T07:49:02.748Z,10.53
2018-03-24T07:51:29.686Z,10.83
2018-03-24T07:53:55.867Z,10.40
2018-03-24T07:56:22.088Z,11.50
2018-03-24T07:58:48.260Z,10.47
2018-03-24T08:01:14.498Z,10.63
2018-03-24T08:03:40.675Z,11.13
2018-03-24T08:06:07.636Z,12.17
2018-03-24T08:08:33.801Z,11.83
2018-03-24T08:11:00.032Z,11.63
2018-03-24T08:13:26.200Z,12.43
2018-03-24T08:15:52.370Z,11.67
2018-03-24T08:18:18.782Z,12.73
2018-03-24T08:20:45.686Z,10.63
2018-03-24T08:23:11.862Z,12.70
2018-03-24T08:25:38.791Z,14.20
2018-03-24T08:28:04.972Z,13.47
2018-03-24T08:30:31.644Z,12.57
2018-03-24T08:32:57.904Z,12.60
2018-03-24T08:35:24.112Z,12.63
2018-03-24T08:37:50.296Z,13.70
2018-03-24T08:40:17.302Z,13.23
2018-03-24T08:42:43.546Z,14.33
2018-03-24T08:45:09.783Z,12.97
2018-03-24T08:47:35.954Z,13.87
2018-03-24T08:50:02.148Z,12.83
2018-03-24T08:52:28.388Z,13.37
2018-03-24T08:54:54.563Z,14.70
2018-03-24T08:57:20.730Z,11.97
2018-03-24T08:59:48.898Z,13.47
2018-03-24T09:02:15.059Z,13.93
2018-03-24T09:04:41.240Z,14.20
2018-03-24T09:07:07.542Z,14.77
2018-03-24T09:09:34.471Z,13.47
2018-03-24T09:12:00.664Z,13.57
2018-03-24T09:14:26.893Z,14.33
2018-03-24T09:16:53.057Z,13.37
2018-03-24T09:19:19.240Z,13.13
2018-03-24T09:21:46.212Z,11.80
2018-03-24T09:24:12.371Z,12.30
2018-03-24T09:26:38.546Z,15.30
2018-03-24T09:29:05.516Z,13.67
2018-03-24T09:31:31.699Z,17.10
2018-03-24T09:33:57.901Z,15.33
2018-03-24T09:36:24.116Z,13.23
2018-03-24T09:38:50.296Z,14.47
2018-03-24T09:41:16.471Z,14.93
2018-03-24T09:43:42.683Z,15.20
2018-03-24T09:46:09.586Z,14.37
2018-03-24T09:48:35.775Z,14.77
2018-03-24T09:51:02.731Z,14.77
2018-03-24T09:53:28.912Z,14.33
2018-03-24T09:55:55.104Z,15.43
2018-03-24T09:58:21.272Z,14.90
2018-03-24T10:00:47.471Z,14.80
2018-03-24T10:03:13.659Z,13.93
2018-03-24T10:05:39.829Z,14.50
2018-03-24T10:08:06.067Z,14.27
2018-03-24T10:10:32.235Z,14.10
2018-03-24T10:12:58.410Z,17.77
2018-03-24T10:15:25.384Z,15.10
2018-03-24T10:17:51.556Z,15.30
2018-03-24T10:20:17.730Z,14.03
2018-03-24T10:22:56.987Z,15.77
2018-03-24T10:25:23.146Z,15.50
2018-03-24T10:27:49.624Z,16.63
2018-03-24T10:30:15.819Z,14.90
2018-03-24T10:32:41.985Z,14.87
2018-03-24T10:35:08.210Z,15.53
2018-03-24T10:37:40.457Z,14.53
2018-03-24T10:40:06.683Z,14.57
2018-03-24T10:42:32.851Z,16.73
2018-03-24T10:44:59.093Z,16.80
2018-03-24T10:47:26.030Z,16.73
2018-03-24T10:49:52.199Z,16.83
2018-03-24T10:52:18.416Z,16.83
2018-03-24T10:54:45.359Z,16.70
2018-03-24T10:57:12.275Z,13.77
2018-03-24T10:59:38.495Z,18.97
2018-03-24T11:02:04.689Z,16.83
2018-03-24T11:04:31.603Z,17.60
2018-03-24T11:06:57.817Z,15.00
2018-03-24T11:09:23.991Z,18.13
2018-03-24T11:11:50.206Z,13.53
2018-03-24T11:14:16.480Z,17.23
2018-03-24T11:16:42.671Z,16.83
2018-03-24T11:19:09.596Z,15.77
2018-03-24T11:21:35.799Z,17.57
2018-03-24T11:24:01.973Z,19.57
2018-03-24T11:26:28.185Z,14.40
2018-03-24T11:28:54.397Z,17.20
2018-03-24T11:31:20.586Z,16.67
2018-03-24T11:33:46.846Z,14.03
2018-03-24T11:36:13.774Z,16.60
2018-03-24T11:38:39.950Z,15.77
2018-03-24T11:41:06.156Z,17.30
2018-03-24T11:43:33.059Z,15.50
2018-03-24T11:45:59.287Z,16.30
2018-03-24T11:48:25.500Z,17.63
2018-03-24T11:50:51.679Z,17.00
2018-03-24T11:53:17.888Z,16.23
2018-03-24T11:55:44.135Z,15.60
2018-03-24T11:58:10.328Z,16.60
2018-03-24T12:00:36.512Z,18.93
2018-03-24T12:03:02.732Z,15.23
2018-03-24T12:05:28.956Z,17.20
2018-03-24T12:07:55.159Z,17.20
2018-03-24T12:10:21.319Z,14.73
2018-03-24T12:12:47.539Z,16.73
2018-03-24T12:15:13.719Z,16.47
2018-03-24T12:17:39.884Z,18.03
2018-03-24T12:20:06.082Z,15.00
2018-03-24T12:22:32.298Z,16.40
2018-03-24T12:24:58.539Z,18.23
2018-03-24T12:27:24.709Z,16.60
2018-03-24T12:29:51.622Z,16.07
2018-03-24T12:32:17.819Z,17.97
2018-03-24T12:34:44.094Z,15.20
2018-03-24T12:37:11.012Z,16.93
2018-03-24T12:39:37.170Z,17.53
2018-03-24T12:42:03.411Z,17.20
2018-03-24T12:44:29.579Z,19.93
2018-03-24T12:46:55.767Z,17.03
2018-03-24T12:49:21.992Z,17.80
2018-03-24T12:51:48.199Z,18.97
2018-03-24T12:54:14.367Z,19.20
2018-03-24T12:56:40.600Z,18.47
2018-03-24T12:59:06.774Z,18.00
2018-03-24T13:01:33.011Z,21.17
2018-03-24T13:03:59.186Z,21.03
2018-03-24T13:06:25.355Z,21.03
2018-03-24T13:08:52.332Z,19.07
2018-03-24T13:11:18.499Z,19.80
2018-03-24T13:13:44.645Z,19.20
2018-03-24T13:16:10.832Z,20.53
2018-03-24T13:18:36.995Z,16.93
2018-03-24T13:21:03.275Z,18.80
2018-03-24T13:23:30.197Z,17.80
2018-03-24T13:25:57.098Z,17.30
2018-03-24T13:28:23.299Z,15.73
2018-03-24T13:30:50.211Z,15.47
2018-03-24T13:33:16.367Z,18.23
2018-03-24T13:35:42.668Z,19.97
2018-03-24T13:38:08.860Z,18.10
2018-03-24T13:40:35.815Z,18.77
2018-03-24T13:43:02.020Z,18.27
2018-03-24T13:45:28.199Z,20.33
2018-03-24T13:47:54.422Z,19.53
2018-03-24T13:50:20.580Z,18.23
2018-03-24T13:52:46.758Z,19.77
2018-03-24T13:55:13.717Z,15.80
2018-03-24T13:57:40.763Z,17.80
2018-03-24T14:00:07.694Z,16.73
2018-03-24T14:02:33.862Z,17.00
2018-03-24T14:05:00.055Z,17.00
2018-03-24T14:07:26.239Z,17.80
2018-03-24T14:09:52.487Z,17.60
2018-03-24T14:12:18.732Z,18.00
2018-03-24T14:14:44.927Z,15.87
2018-03-24T14:17:11.095Z,16.20
2018-03-24T14:19:37.325Z,16.73
2018-03-24T14:22:03.502Z,17.57
2018-03-24T14:24:29.662Z,16.60
2018-03-24T14:26:55.912Z,16.63
2018-03-24T14:29:22.074Z,16.40
2018-03-24T14:31:48.251Z,15.23
2018-03-24T14:34:15.240Z,16.37
2018-03-24T14:36:41.424Z,15.77
2018-03-24T14:39:08.370Z,15.57
2018-03-24T14:41:35.322Z,17.60
2018-03-24T14:44:02.239Z,16.50
2018-03-24T14:46:28.403Z,16.23
2018-03-24T14:48:55.435Z,17.63
2018-03-24T14:51:21.615Z,15.93
2018-03-24T14:53:47.778Z,16.67
2018-03-24T14:56:14.010Z,15.63
2018-03-24T14:58:40.211Z,17.93
2018-03-24T15:01:06.423Z,17.47
2018-03-24T15:03:33.376Z,16.67
2018-03-24T15:06:00.304Z,19.70
2018-03-24T15:08:26.491Z,17.63
2018-03-24T15:10:52.738Z,20.00
2018-03-24T15:13:18.912Z,20.73
2018-03-24T15:15:45.818Z,18.73
2018-03-24T15:18:12.060Z,16.63
2018-03-24T15:20:38.231Z,20.23
2018-03-24T15:23:05.160Z,19.70
2018-03-24T15:25:32.153Z,19.20
2018-03-24T15:27:58.336Z,19.97
2018-03-24T15:30:36.731Z,19.83
2018-03-24T15:33:15.191Z,22.43
2018-03-24T15:35:54.826Z,19.00
2018-03-24T15:38:21.730Z,18.27
2018-03-24T15:40:47.919Z,21.00
2018-03-24T15:43:14.135Z,20.47
2018-03-24T15:45:40.318Z,20.80
2018-03-24T15:48:06.566Z,19.40
2018-03-24T15:50:32.746Z,20.90
2018-03-24T15:52:59.646Z,20.30
2018-03-24T15:55:25.881Z,20.17
2018-03-24T15:57:52.062Z,19.10
2018-03-24T16:00:19.075Z,21.27
2018-03-24T16:02:45.258Z,18.07
2018-03-24T16:05:11.444Z,20.03
2018-03-24T16:07:37.696Z,19.07
2018-03-24T16:10:03.904Z,17.63
2018-03-24T16:12:30.145Z,16.67
2018-03-24T16:14:56.324Z,17.87
2018-03-24T16:17:22.517Z,19.93
2018-03-24T16:19:48.723Z,17.73
2018-03-24T16:22:14.893Z,18.13
2018-03-24T16:24:41.104Z,18.33
2018-03-24T16:27:07.274Z,18.23
2018-03-24T16:29:34.222Z,16.17
2018-03-24T16:32:01.153Z,20.37
2018-03-24T16:34:27.328Z,16.33
2018-03-24T16:36:53.538Z,20.93
2018-03-24T16:39:20.534Z,17.33
2018-03-24T16:41:46.739Z,17.20
2018-03-24T16:44:12.911Z,17.73
2018-03-24T16:46:39.076Z,20.37
2018-03-24T16:49:06.032Z,17.77
2018-03-24T16:51:33.019Z,18.13
2018-03-24T16:53:59.223Z,16.20
2018-03-24T16:56:26.180Z,16.53
2018-03-24T16:58:52.745Z,19.13
2018-03-24T17:01:18.960Z,18.93
2018-03-24T17:03:45.123Z,19.53
2018-03-24T17:06:11.326Z,18.63
2018-03-24T17:08:37.491Z,16.13
2018-03-24T17:11:03.738Z,19.03
2018-03-24T17:13:29.929Z,17.57
2018-03-24T17:15:56.111Z,17.07
2018-03-24T17:18:23.903Z,17.83
2018-03-24T17:20:50.816Z,19.10
2018-03-24T17:23:17.027Z,15.97
2018-03-24T17:25:43.256Z,18.03
2018-03-24T17:28:09.430Z,16.10
2018-03-24T17:30:35.607Z,16.07
2018-03-24T17:33:01.788Z,19.67
2018-03-24T17:35:27.972Z,15.80
2018-03-24T17:37:54.406Z,14.20
2018-03-24T17:40:20.580Z,16.70
2018-03-24T17:42:46.747Z,16.33
2018-03-24T17:45:12.940Z,17.00
2018-03-24T17:47:39.154Z,24.20
2018-03-24T17:50:05.351Z,14.90
2018-03-24T17:52:32.251Z,22.10
2018-03-24T17:54:58.435Z,17.10
2018-03-24T17:57:25.415Z,23.57
2018-03-24T17:59:51.605Z,23.93
2018-03-24T18:02:18.531Z,20.67
2018-03-24T18:04:44.734Z,17.40
2018-03-24T18:07:10.914Z,17.47
2018-03-24T18:09:37.075Z,12.33
2018-03-24T18:12:04.048Z,21.63
2018-03-24T18:14:30.326Z,15.50
2018-03-24T18:16:56.527Z,14.57
2018-03-24T18:19:22.975Z,29.77
2018-03-24T18:21:49.301Z,14.33
2018-03-24T18:24:18.380Z,16.37
2018-03-24T18:26:44.587Z,15.90
2018-03-24T18:29:10.780Z,16.90
2018-03-24T18:31:36.978Z,17.13
2018-03-24T18:34:03.158Z,14.20
2018-03-24T18:36:29.374Z,15.13
2018-03-24T18:38:55.555Z,16.53
2018-03-24T18:41:22.564Z,14.30
2018-03-24T18:43:49.490Z,19.00
2018-03-24T18:46:15.678Z,15.67
2018-03-24T18:48:42.647Z,15.87
2018-03-24T18:51:09.563Z,27.27
2018-03-24T18:53:35.758Z,17.97
2018-03-24T18:56:01.969Z,24.90
2018-03-24T18:58:28.134Z,18.47
2018-03-24T19:00:54.321Z,17.73
2018-03-24T19:03:21.275Z,19.17
2018-03-24T19:05:48.187Z,18.50
2018-03-24T19:08:14.426Z,15.07
2018-03-24T19:10:40.605Z,18.13
2018-03-24T19:13:06.822Z,34.73
2018-03-24T19:15:33.739Z,16.83
2018-03-24T19:17:59.924Z,37.73
2018-03-24T19:20:26.126Z,29.87
2018-03-24T19:22:53.105Z,19.87
2018-03-24T19:25:19.279Z,32.60
2018-03-24T19:27:45.450Z,22.13
2018-03-24T19:30:12.416Z,20.47
2018-03-24T19:32:38.598Z,21.07
2018-03-24T19:35:04.967Z,17.43
2018-03-24T19:37:32.049Z,18.67
2018-03-24T19:39:58.936Z,17.87
2018-03-24T19:42:25.151Z,17.83
2018-03-24T19:44:51.336Z,16.57
2018-03-24T19:47:18.251Z,19.30
2018-03-24T19:49:44.484Z,17.90
2018-03-24T19:52:10.652Z,19.47
2018-03-24T19:54:37.591Z,19.27
2018-03-24T19:57:04.564Z,19.30
2018-03-24T19:59:30.731Z,23.20
2018-03-24T20:01:56.910Z,17.87
2018-03-24T20:04:23.950Z,18.13
2018-03-24T20:06:50.143Z,20.07
2018-03-24T20:09:16.344Z,21.80
2018-03-24T20:11:42.527Z,21.87
2018-03-24T20:14:08.736Z,24.23
2018-03-24T20:16:34.961Z,25.43
2018-03-24T20:19:01.113Z,29.67
2018-03-24T20:21:27.288Z,25.70
2018-03-24T20:23:54.247Z,28.13
2018-03-24T20:26:20.427Z,21.90
2018-03-24T20:28:46.802Z,27.37
2018-03-24T20:31:13.726Z,25.20
2018-03-24T20:33:39.918Z,27.20
2018-03-24T20:36:06.149Z,25.70
2018-03-24T20:38:32.344Z,26.70
2018-03-24T20:40:58.562Z,31.63
2018-03-24T20:43:24.752Z,23.97
2018-03-24T20:45:50.958Z,25.80
2018-03-24T20:48:17.906Z,24.63
2018-03-24T20:50:44.879Z,32.63
2018-03-24T20:53:11.096Z,35.20
2018-03-24T20:55:37.280Z,33.20
2018-03-24T20:58:03.550Z,30.73
2018-03-24T21:00:30.470Z,31.77
2018-03-24T21:02:56.674Z,27.80
2018-03-24T21:05:22.902Z,36.30
2018-03-24T21:07:49.149Z,30.43
2018-03-24T21:10:15.387Z,29.93
2018-03-24T21:12:41.607Z,26.83
2018-03-24T21:15:10.729Z,31.10
2018-03-24T21:17:36.899Z,29.33
2018-03-24T21:20:03.160Z,34.60
2018-03-24T21:22:29.339Z,32.20
2018-03-24T21:24:55.560Z,33.17
2018-03-24T21:27:21.768Z,28.57
2018-03-24T21:29:47.959Z,31.97
2018-03-24T21:32:14.934Z,33.03
2018-03-24T21:34:41.100Z,28.20
2018-03-24T21:37:07.260Z,36.37
2018-03-24T21:39:34.235Z,29.77
2018-03-24T21:42:01.168Z,37.40
2018-03-24T21:44:27.373Z,32.63
2018-03-24T21:46:53.538Z,33.47
2018-03-24T21:49:19.767Z,30.20
2018-03-24T21:51:46.730Z,31.90
2018-03-24T21:54:13.672Z,25.60
2018-03-24T21:56:40.595Z,32.73
2018-03-24T21:59:06.811Z,31.03
2018-03-24T22:01:33.018Z,28.97
2018-03-24T22:03:59.196Z,32.83
2018-03-24T22:06:25.437Z,31.33
2018-03-24T22:08:51.607Z,32.43
2018-03-24T22:11:17.780Z,30.67
2018-03-24T22:13:43.992Z,30.20
2018-03-24T22:16:10.164Z,29.93
2018-03-24T22:18:36.383Z,29.43
2018-03-24T22:21:02.590Z,31.13
2018-03-24T22:23:28.780Z,31.60
2018-03-24T22:25:55.690Z,30.07
2018-03-24T22:28:21.884Z,33.17
2018-03-24T22:30:48.055Z,32.13
2018-03-24T22:33:14.228Z,33.90
2018-03-24T22:35:40.429Z,35.80
2018-03-24T22:38:06.611Z,31.53
2018-03-24T22:40:33.538Z,39.33
2018-03-24T22:42:59.833Z,35.87
2018-03-24T22:45:25.966Z,37.73
2018-03-24T22:47:52.146Z,32.03
2018-03-24T22:50:19.086Z,36.63
2018-03-24T22:52:45.287Z,34.13
2018-03-24T22:55:11.487Z,36.70
2018-03-24T22:57:37.658Z,46.33
2018-03-24T23:00:04.679Z,41.97
2018-03-24T23:02:30.911Z,39.57
2018-03-24T23:04:57.079Z,41.97
2018-03-24T23:07:23.255Z,40.70
2018-03-24T23:09:49.510Z,39.20
2018-03-24T23:12:15.692Z,47.23
2018-03-24T23:14:41.861Z,40.23
2018-03-24T23:17:08.055Z,33.37
2018-03-24T23:19:34.242Z,39.40
2018-03-24T23:22:00.430Z,40.53
2018-03-24T23:24:26.627Z,36.73
2018-03-24T23:26:52.791Z,35.60
2018-03-24T23:29:19.021Z,34.30
2018-03-24T23:31:45.202Z,37.27
2018-03-24T23:34:11.366Z,38.80
2018-03-24T23:36:37.617Z,34.43
2018-03-24T23:39:04.739Z,39.30
2018-03-24T23:41:30.922Z,37.13
2018-03-24T23:43:57.873Z,35.83
2018-03-24T23:46:24.799Z,32.20
2018-03-24T23:48:51.025Z,32.33
2018-03-24T23:51:17.194Z,34.23
2018-03-24T23:53:44.121Z,32.00
2018-03-24T23:56:10.359Z,32.13
2018-03-24T23:58:36.524Z,34.60
